sensor_id;sensor_type;location;lat;lon;timestamp;P1;durP1;ratioP1;P2;durP2;ratioP2
65368;SDS011;51970;53.484;49.488;2023-07-28T00:00:25;26.58;;;12.90;;
65368;SDS011;51970;53.484;49.488;2023-07-28T00:02:51;21.65;;;10.48;;
65368;SDS011;51970;53.484;49.488;2023-07-28T00:05:17;21.08;;;12.93;;
65368;SDS011;51970;53.484;49.488;2023-07-28T00:07:43;18.60;;;11.85;;
65368;SDS011;51970;53.484;49.488;2023-07-28T00:10:10;21.00;;;11.80;;
65368;SDS011;51970;53.484;49.488;2023-07-28T00:12:36;22.08;;;12.10;;
65368;SDS011;51970;53.484;49.488;2023-07-28T00:15:03;29.13;;;12.00;;
65368;SDS011;51970;53.484;49.488;2023-07-28T00:17:30;24.83;;;11.57;;
65368;SDS011;51970;53.484;49.488;2023-07-28T00:19:56;17.60;;;11.93;;
65368;SDS011;51970;53.484;49.488;2023-07-28T00:22:22;26.63;;;12.35;;
65368;SDS011;51970;53.484;49.488;2023-07-28T00:24:48;20.45;;;12.32;;
65368;SDS011;51970;53.484;49.488;2023-07-28T00:27:15;22.05;;;12.38;;
65368;SDS011;51970;53.484;49.488;2023-07-28T00:29:42;23.83;;;12.20;;
65368;SDS011;51970;53.484;49.488;2023-07-28T00:32:08;23.33;;;12.23;;
65368;SDS011;51970;53.484;49.488;2023-07-28T00:34:34;19.42;;;11.25;;
65368;SDS011;51970;53.484;49.488;2023-07-28T00:37:01;22.67;;;11.52;;
65368;SDS011;51970;53.484;49.488;2023-07-28T00:39:27;24.00;;;11.98;;
65368;SDS011;51970;53.484;49.488;2023-07-28T00:41:53;18.92;;;13.10;;
65368;SDS011;51970;53.484;49.488;2023-07-28T00:44:20;22.25;;;12.93;;
65368;SDS011;51970;53.484;49.488;2023-07-28T00:46:46;25.30;;;12.95;;
65368;SDS011;51970;53.484;49.488;2023-07-28T00:49:13;25.50;;;12.35;;
65368;SDS011;51970;53.484;49.488;2023-07-28T00:51:39;24.45;;;12.98;;
65368;SDS011;51970;53.484;49.488;2023-07-28T00:54:06;18.92;;;12.40;;
65368;SDS011;51970;53.484;49.488;2023-07-28T00:56:33;24.88;;;12.38;;
65368;SDS011;51970;53.484;49.488;2023-07-28T00:58:59;20.70;;;12.43;;
65368;SDS011;51970;53.484;49.488;2023-07-28T01:01:26;21.75;;;13.55;;
65368;SDS011;51970;53.484;49.488;2023-07-28T01:03:53;21.65;;;11.52;;
65368;SDS011;51970;53.484;49.488;2023-07-28T01:08:57;19.83;;;13.40;;
65368;SDS011;51970;53.484;49.488;2023-07-28T01:11:29;22.13;;;12.23;;
65368;SDS011;51970;53.484;49.488;2023-07-28T01:13:56;20.00;;;12.07;;
65368;SDS011;51970;53.484;49.488;2023-07-28T01:16:22;21.15;;;13.48;;
65368;SDS011;51970;53.484;49.488;2023-07-28T01:18:49;23.90;;;11.85;;
65368;SDS011;51970;53.484;49.488;2023-07-28T01:21:17;22.23;;;12.25;;
65368;SDS011;51970;53.484;49.488;2023-07-28T01:26:45;22.83;;;9.63;;
65368;SDS011;51970;53.484;49.488;2023-07-28T01:29:12;21.30;;;11.90;;
65368;SDS011;51970;53.484;49.488;2023-07-28T01:31:41;27.20;;;13.23;;
65368;SDS011;51970;53.484;49.488;2023-07-28T01:34:08;25.25;;;12.82;;
65368;SDS011;51970;53.484;49.488;2023-07-28T01:36:34;19.50;;;10.82;;
65368;SDS011;51970;53.484;49.488;2023-07-28T01:39:00;22.60;;;11.75;;
65368;SDS011;51970;53.484;49.488;2023-07-28T01:41:27;25.73;;;13.20;;
65368;SDS011;51970;53.484;49.488;2023-07-28T01:43:53;21.33;;;12.43;;
65368;SDS011;51970;53.484;49.488;2023-07-28T01:46:21;22.00;;;13.25;;
65368;SDS011;51970;53.484;49.488;2023-07-28T01:48:48;20.25;;;12.20;;
65368;SDS011;51970;53.484;49.488;2023-07-28T01:51:14;25.10;;;11.98;;
65368;SDS011;51970;53.484;49.488;2023-07-28T01:53:41;20.85;;;11.77;;
65368;SDS011;51970;53.484;49.488;2023-07-28T01:56:07;15.95;;;11.07;;
65368;SDS011;51970;53.484;49.488;2023-07-28T01:58:33;17.08;;;11.70;;
65368;SDS011;51970;53.484;49.488;2023-07-28T02:01:00;21.40;;;11.55;;
65368;SDS011;51970;53.484;49.488;2023-07-28T02:03:26;25.45;;;13.25;;
65368;SDS011;51970;53.484;49.488;2023-07-28T02:05:52;22.98;;;11.27;;
65368;SDS011;51970;53.484;49.488;2023-07-28T02:08:22;24.33;;;11.52;;
65368;SDS011;51970;53.484;49.488;2023-07-28T02:10:49;30.73;;;11.93;;
65368;SDS011;51970;53.484;49.488;2023-07-28T02:16:39;23.40;;;12.20;;
65368;SDS011;51970;53.484;49.488;2023-07-28T02:19:05;21.52;;;11.27;;
65368;SDS011;51970;53.484;49.488;2023-07-28T02:21:32;19.83;;;11.93;;
65368;SDS011;51970;53.484;49.488;2023-07-28T02:23:58;18.45;;;12.00;;
65368;SDS011;51970;53.484;49.488;2023-07-28T02:26:24;23.58;;;9.63;;
65368;SDS011;51970;53.484;49.488;2023-07-28T02:28:51;28.58;;;12.15;;
65368;SDS011;51970;53.484;49.488;2023-07-28T02:31:17;18.05;;;11.93;;
65368;SDS011;51970;53.484;49.488;2023-07-28T02:33:43;17.52;;;11.25;;
65368;SDS011;51970;53.484;49.488;2023-07-28T02:36:10;26.17;;;13.40;;
65368;SDS011;51970;53.484;49.488;2023-07-28T02:38:36;24.80;;;11.60;;
65368;SDS011;51970;53.484;49.488;2023-07-28T02:41:02;28.20;;;12.98;;
65368;SDS011;51970;53.484;49.488;2023-07-28T02:43:29;19.33;;;11.35;;
65368;SDS011;51970;53.484;49.488;2023-07-28T02:45:56;35.30;;;11.63;;
65368;SDS011;51970;53.484;49.488;2023-07-28T02:48:23;28.85;;;12.57;;
65368;SDS011;51970;53.484;49.488;2023-07-28T02:50:50;29.38;;;11.48;;
65368;SDS011;51970;53.484;49.488;2023-07-28T02:53:17;20.08;;;11.27;;
65368;SDS011;51970;53.484;49.488;2023-07-28T02:55:44;21.77;;;10.85;;
65368;SDS011;51970;53.484;49.488;2023-07-28T02:58:12;20.45;;;10.65;;
65368;SDS011;51970;53.484;49.488;2023-07-28T03:00:39;18.85;;;10.75;;
65368;SDS011;51970;53.484;49.488;2023-07-28T03:03:07;18.20;;;10.73;;
65368;SDS011;51970;53.484;49.488;2023-07-28T03:05:33;23.05;;;9.98;;
65368;SDS011;51970;53.484;49.488;2023-07-28T03:08:00;21.25;;;11.32;;
65368;SDS011;51970;53.484;49.488;2023-07-28T03:10:26;21.30;;;10.40;;
65368;SDS011;51970;53.484;49.488;2023-07-28T03:12:52;23.60;;;10.70;;
65368;SDS011;51970;53.484;49.488;2023-07-28T03:15:19;22.33;;;10.57;;
65368;SDS011;51970;53.484;49.488;2023-07-28T03:17:48;28.88;;;11.55;;
65368;SDS011;51970;53.484;49.488;2023-07-28T03:20:15;20.10;;;11.27;;
65368;SDS011;51970;53.484;49.488;2023-07-28T03:22:41;24.48;;;10.57;;
65368;SDS011;51970;53.484;49.488;2023-07-28T03:25:08;24.80;;;11.70;;
65368;SDS011;51970;53.484;49.488;2023-07-28T03:27:35;22.10;;;10.85;;
65368;SDS011;51970;53.484;49.488;2023-07-28T03:30:01;26.60;;;10.38;;
65368;SDS011;51970;53.484;49.488;2023-07-28T03:32:28;22.77;;;10.90;;
65368;SDS011;51970;53.484;49.488;2023-07-28T03:34:54;19.70;;;9.60;;
65368;SDS011;51970;53.484;49.488;2023-07-28T03:37:20;26.83;;;10.70;;
65368;SDS011;51970;53.484;49.488;2023-07-28T03:39:47;22.50;;;9.43;;
65368;SDS011;51970;53.484;49.488;2023-07-28T03:42:14;28.88;;;10.75;;
65368;SDS011;51970;53.484;49.488;2023-07-28T03:44:41;22.23;;;10.25;;
65368;SDS011;51970;53.484;49.488;2023-07-28T03:47:07;22.20;;;11.02;;
65368;SDS011;51970;53.484;49.488;2023-07-28T03:49:34;24.38;;;10.35;;
65368;SDS011;51970;53.484;49.488;2023-07-28T03:52:03;22.25;;;9.48;;
65368;SDS011;51970;53.484;49.488;2023-07-28T03:54:29;20.85;;;10.10;;
65368;SDS011;51970;53.484;49.488;2023-07-28T03:56:55;22.38;;;10.48;;
65368;SDS011;51970;53.484;49.488;2023-07-28T03:59:22;22.83;;;10.85;;
65368;SDS011;51970;53.484;49.488;2023-07-28T04:01:48;21.15;;;10.40;;
65368;SDS011;51970;53.484;49.488;2023-07-28T04:04:15;25.23;;;11.32;;
65368;SDS011;51970;53.484;49.488;2023-07-28T04:06:42;24.48;;;9.70;;
65368;SDS011;51970;53.484;49.488;2023-07-28T04:09:11;18.85;;;10.70;;
65368;SDS011;51970;53.484;49.488;2023-07-28T04:11:39;24.23;;;10.63;;
65368;SDS011;51970;53.484;49.488;2023-07-28T04:14:05;27.00;;;13.38;;
65368;SDS011;51970;53.484;49.488;2023-07-28T04:16:32;19.83;;;9.77;;
65368;SDS011;51970;53.484;49.488;2023-07-28T04:18:59;24.52;;;10.35;;
65368;SDS011;51970;53.484;49.488;2023-07-28T04:21:26;28.40;;;11.82;;
65368;SDS011;51970;53.484;49.488;2023-07-28T04:23:52;42.70;;;11.80;;
65368;SDS011;51970;53.484;49.488;2023-07-28T04:26:18;34.35;;;12.48;;
65368;SDS011;51970;53.484;49.488;2023-07-28T04:28:45;22.33;;;11.30;;
65368;SDS011;51970;53.484;49.488;2023-07-28T04:31:11;21.92;;;10.55;;
65368;SDS011;51970;53.484;49.488;2023-07-28T04:33:42;28.35;;;10.00;;
65368;SDS011;51970;53.484;49.488;2023-07-28T04:36:08;27.58;;;10.82;;
65368;SDS011;51970;53.484;49.488;2023-07-28T04:38:35;21.95;;;9.55;;
65368;SDS011;51970;53.484;49.488;2023-07-28T04:41:01;25.35;;;10.30;;
65368;SDS011;51970;53.484;49.488;2023-07-28T04:43:28;23.83;;;11.23;;
65368;SDS011;51970;53.484;49.488;2023-07-28T04:45:54;20.83;;;11.07;;
65368;SDS011;51970;53.484;49.488;2023-07-28T04:48:21;27.80;;;10.02;;
65368;SDS011;51970;53.484;49.488;2023-07-28T04:50:47;19.45;;;11.32;;
65368;SDS011;51970;53.484;49.488;2023-07-28T04:53:14;22.48;;;10.25;;
65368;SDS011;51970;53.484;49.488;2023-07-28T04:55:40;29.27;;;10.23;;
65368;SDS011;51970;53.484;49.488;2023-07-28T04:58:06;36.30;;;12.32;;
65368;SDS011;51970;53.484;49.488;2023-07-28T05:00:33;27.52;;;10.25;;
65368;SDS011;51970;53.484;49.488;2023-07-28T05:02:59;25.08;;;10.82;;
65368;SDS011;51970;53.484;49.488;2023-07-28T05:05:26;24.65;;;11.15;;
65368;SDS011;51970;53.484;49.488;2023-07-28T05:07:52;30.02;;;10.80;;
65368;SDS011;51970;53.484;49.488;2023-07-28T05:10:18;33.58;;;12.25;;
65368;SDS011;51970;53.484;49.488;2023-07-28T05:12:45;33.80;;;10.60;;
65368;SDS011;51970;53.484;49.488;2023-07-28T05:15:13;22.70;;;9.77;;
65368;SDS011;51970;53.484;49.488;2023-07-28T05:17:40;28.75;;;10.27;;
65368;SDS011;51970;53.484;49.488;2023-07-28T05:20:07;20.60;;;9.10;;
65368;SDS011;51970;53.484;49.488;2023-07-28T05:22:34;22.67;;;10.18;;
65368;SDS011;51970;53.484;49.488;2023-07-28T05:25:00;22.52;;;8.70;;
65368;SDS011;51970;53.484;49.488;2023-07-28T05:27:27;17.75;;;8.55;;
65368;SDS011;51970;53.484;49.488;2023-07-28T05:29:53;20.67;;;8.68;;
65368;SDS011;51970;53.484;49.488;2023-07-28T05:32:20;19.02;;;8.63;;
65368;SDS011;51970;53.484;49.488;2023-07-28T05:34:47;21.45;;;8.85;;
65368;SDS011;51970;53.484;49.488;2023-07-28T05:37:14;25.23;;;11.07;;
65368;SDS011;51970;53.484;49.488;2023-07-28T05:39:40;16.02;;;9.38;;
65368;SDS011;51970;53.484;49.488;2023-07-28T05:42:06;17.38;;;9.25;;
65368;SDS011;51970;53.484;49.488;2023-07-28T05:44:33;15.80;;;9.15;;
65368;SDS011;51970;53.484;49.488;2023-07-28T05:46:59;22.80;;;10.30;;
65368;SDS011;51970;53.484;49.488;2023-07-28T05:49:26;21.42;;;8.60;;
65368;SDS011;51970;53.484;49.488;2023-07-28T05:51:52;23.67;;;8.98;;
65368;SDS011;51970;53.484;49.488;2023-07-28T05:54:18;19.83;;;8.48;;
65368;SDS011;51970;53.484;49.488;2023-07-28T05:56:44;21.55;;;7.93;;
65368;SDS011;51970;53.484;49.488;2023-07-28T05:59:12;24.65;;;9.85;;
65368;SDS011;51970;53.484;49.488;2023-07-28T06:01:38;18.92;;;8.40;;
65368;SDS011;51970;53.484;49.488;2023-07-28T06:04:04;22.95;;;8.60;;
65368;SDS011;51970;53.484;49.488;2023-07-28T06:06:31;14.98;;;8.00;;
65368;SDS011;51970;53.484;49.488;2023-07-28T06:08:57;19.63;;;7.75;;
65368;SDS011;51970;53.484;49.488;2023-07-28T06:11:24;24.17;;;8.93;;
65368;SDS011;51970;53.484;49.488;2023-07-28T06:13:50;25.63;;;8.30;;
65368;SDS011;51970;53.484;49.488;2023-07-28T06:16:16;21.02;;;6.20;;
65368;SDS011;51970;53.484;49.488;2023-07-28T06:18:43;24.55;;;8.45;;
65368;SDS011;51970;53.484;49.488;2023-07-28T06:21:09;29.92;;;7.03;;
65368;SDS011;51970;53.484;49.488;2023-07-28T06:23:35;20.42;;;7.20;;
65368;SDS011;51970;53.484;49.488;2023-07-28T06:26:02;22.42;;;9.98;;
65368;SDS011;51970;53.484;49.488;2023-07-28T06:28:28;21.20;;;7.68;;
65368;SDS011;51970;53.484;49.488;2023-07-28T06:30:55;20.40;;;9.57;;
65368;SDS011;51970;53.484;49.488;2023-07-28T06:33:21;21.20;;;7.47;;
65368;SDS011;51970;53.484;49.488;2023-07-28T06:35:48;22.70;;;8.25;;
65368;SDS011;51970;53.484;49.488;2023-07-28T06:38:14;21.83;;;9.05;;
65368;SDS011;51970;53.484;49.488;2023-07-28T06:40:40;15.20;;;7.78;;
65368;SDS011;51970;53.484;49.488;2023-07-28T06:43:07;24.25;;;9.02;;
65368;SDS011;51970;53.484;49.488;2023-07-28T06:45:33;16.15;;;7.55;;
65368;SDS011;51970;53.484;49.488;2023-07-28T06:47:59;24.08;;;7.13;;
65368;SDS011;51970;53.484;49.488;2023-07-28T06:50:26;25.38;;;8.50;;
65368;SDS011;51970;53.484;49.488;2023-07-28T06:52:52;20.67;;;8.02;;
65368;SDS011;51970;53.484;49.488;2023-07-28T06:55:18;15.20;;;7.55;;
65368;SDS011;51970;53.484;49.488;2023-07-28T06:57:47;16.23;;;8.02;;
65368;SDS011;51970;53.484;49.488;2023-07-28T07:00:15;11.85;;;7.10;;
65368;SDS011;51970;53.484;49.488;2023-07-28T07:02:42;17.63;;;8.23;;
65368;SDS011;51970;53.484;49.488;2023-07-28T07:05:08;19.83;;;8.55;;
65368;SDS011;51970;53.484;49.488;2023-07-28T07:07:34;17.15;;;7.25;;
65368;SDS011;51970;53.484;49.488;2023-07-28T07:10:01;12.70;;;6.90;;
65368;SDS011;51970;53.484;49.488;2023-07-28T07:12:27;13.38;;;6.93;;
65368;SDS011;51970;53.484;49.488;2023-07-28T07:14:54;14.80;;;6.50;;
65368;SDS011;51970;53.484;49.488;2023-07-28T07:17:20;12.85;;;6.65;;
65368;SDS011;51970;53.484;49.488;2023-07-28T07:19:46;14.98;;;7.30;;
65368;SDS011;51970;53.484;49.488;2023-07-28T07:22:13;13.77;;;7.05;;
65368;SDS011;51970;53.484;49.488;2023-07-28T07:24:39;19.52;;;7.22;;
65368;SDS011;51970;53.484;49.488;2023-07-28T07:27:05;16.48;;;7.35;;
65368;SDS011;51970;53.484;49.488;2023-07-28T07:29:32;17.45;;;7.20;;
65368;SDS011;51970;53.484;49.488;2023-07-28T07:31:58;23.02;;;7.57;;
65368;SDS011;51970;53.484;49.488;2023-07-28T07:34:25;15.63;;;7.20;;
65368;SDS011;51970;53.484;49.488;2023-07-28T07:36:51;23.55;;;6.82;;
65368;SDS011;51970;53.484;49.488;2023-07-28T07:39:17;12.45;;;7.03;;
65368;SDS011;51970;53.484;49.488;2023-07-28T07:41:44;25.17;;;9.80;;
65368;SDS011;51970;53.484;49.488;2023-07-28T07:44:10;15.10;;;6.35;;
65368;SDS011;51970;53.484;49.488;2023-07-28T07:46:36;17.35;;;6.95;;
65368;SDS011;51970;53.484;49.488;2023-07-28T07:49:03;12.48;;;6.18;;
65368;SDS011;51970;53.484;49.488;2023-07-28T07:51:31;27.88;;;6.75;;
65368;SDS011;51970;53.484;49.488;2023-07-28T07:53:59;13.82;;;7.65;;
65368;SDS011;51970;53.484;49.488;2023-07-28T07:56:28;13.77;;;6.75;;
65368;SDS011;51970;53.484;49.488;2023-07-28T07:58:54;12.98;;;7.07;;
65368;SDS011;51970;53.484;49.488;2023-07-28T08:01:21;10.52;;;6.40;;
65368;SDS011;51970;53.484;49.488;2023-07-28T08:03:47;18.30;;;6.60;;
65368;SDS011;51970;53.484;49.488;2023-07-28T08:06:13;13.23;;;5.70;;
65368;SDS011;51970;53.484;49.488;2023-07-28T08:08:41;20.90;;;7.10;;
65368;SDS011;51970;53.484;49.488;2023-07-28T08:11:07;14.48;;;5.40;;
65368;SDS011;51970;53.484;49.488;2023-07-28T08:13:33;16.00;;;7.38;;
65368;SDS011;51970;53.484;49.488;2023-07-28T08:16:00;13.13;;;7.05;;
65368;SDS011;51970;53.484;49.488;2023-07-28T08:18:27;13.30;;;7.43;;
65368;SDS011;51970;53.484;49.488;2023-07-28T08:20:53;22.48;;;6.18;;
65368;SDS011;51970;53.484;49.488;2023-07-28T08:23:20;14.10;;;6.85;;
65368;SDS011;51970;53.484;49.488;2023-07-28T08:25:47;13.90;;;7.38;;
65368;SDS011;51970;53.484;49.488;2023-07-28T08:28:15;16.50;;;5.38;;
65368;SDS011;51970;53.484;49.488;2023-07-28T08:30:42;11.43;;;6.60;;
65368;SDS011;51970;53.484;49.488;2023-07-28T08:33:08;38.35;;;8.10;;
65368;SDS011;51970;53.484;49.488;2023-07-28T08:35:35;15.10;;;6.38;;
65368;SDS011;51970;53.484;49.488;2023-07-28T08:38:01;14.48;;;6.57;;
65368;SDS011;51970;53.484;49.488;2023-07-28T08:40:27;9.85;;;5.85;;
65368;SDS011;51970;53.484;49.488;2023-07-28T08:42:54;14.32;;;6.57;;
65368;SDS011;51970;53.484;49.488;2023-07-28T08:45:21;15.70;;;6.05;;
65368;SDS011;51970;53.484;49.488;2023-07-28T08:47:49;11.77;;;6.10;;
65368;SDS011;51970;53.484;49.488;2023-07-28T08:50:15;16.67;;;6.78;;
65368;SDS011;51970;53.484;49.488;2023-07-28T08:52:42;11.90;;;6.05;;
65368;SDS011;51970;53.484;49.488;2023-07-28T08:55:08;13.18;;;6.25;;
65368;SDS011;51970;53.484;49.488;2023-07-28T08:57:35;19.13;;;6.95;;
65368;SDS011;51970;53.484;49.488;2023-07-28T09:00:09;11.77;;;6.35;;
65368;SDS011;51970;53.484;49.488;2023-07-28T09:02:40;15.07;;;7.05;;
65368;SDS011;51970;53.484;49.488;2023-07-28T09:05:06;16.48;;;7.43;;
65368;SDS011;51970;53.484;49.488;2023-07-28T09:07:42;26.65;;;6.88;;
65368;SDS011;51970;53.484;49.488;2023-07-28T09:10:09;21.63;;;6.57;;
65368;SDS011;51970;53.484;49.488;2023-07-28T09:12:36;12.30;;;5.90;;
65368;SDS011;51970;53.484;49.488;2023-07-28T09:15:14;15.32;;;6.53;;
65368;SDS011;51970;53.484;49.488;2023-07-28T09:17:45;13.65;;;6.15;;
65368;SDS011;51970;53.484;49.488;2023-07-28T09:20:15;14.10;;;4.78;;
65368;SDS011;51970;53.484;49.488;2023-07-28T09:22:42;14.60;;;6.10;;
65368;SDS011;51970;53.484;49.488;2023-07-28T09:25:13;15.55;;;5.95;;
65368;SDS011;51970;53.484;49.488;2023-07-28T09:27:41;16.95;;;6.03;;
65368;SDS011;51970;53.484;49.488;2023-07-28T09:30:14;13.45;;;5.97;;
65368;SDS011;51970;53.484;49.488;2023-07-28T09:32:46;15.00;;;6.07;;
65368;SDS011;51970;53.484;49.488;2023-07-28T09:35:19;16.77;;;5.22;;
65368;SDS011;51970;53.484;49.488;2023-07-28T09:37:48;14.25;;;6.07;;
65368;SDS011;51970;53.484;49.488;2023-07-28T09:40:16;19.98;;;7.22;;
65368;SDS011;51970;53.484;49.488;2023-07-28T09:42:45;18.08;;;6.13;;
65368;SDS011;51970;53.484;49.488;2023-07-28T09:50:14;15.02;;;7.03;;
65368;SDS011;51970;53.484;49.488;2023-07-28T09:52:43;15.93;;;6.45;;
65368;SDS011;51970;53.484;49.488;2023-07-28T09:55:12;19.48;;;6.55;;
65368;SDS011;51970;53.484;49.488;2023-07-28T09:57:41;20.02;;;7.25;;
65368;SDS011;51970;53.484;49.488;2023-07-28T10:00:12;14.77;;;6.85;;
65368;SDS011;51970;53.484;49.488;2023-07-28T10:02:41;12.35;;;6.55;;
65368;SDS011;51970;53.484;49.488;2023-07-28T10:05:08;17.50;;;6.07;;
65368;SDS011;51970;53.484;49.488;2023-07-28T10:07:37;16.05;;;6.15;;
65368;SDS011;51970;53.484;49.488;2023-07-28T10:10:06;14.52;;;6.45;;
65368;SDS011;51970;53.484;49.488;2023-07-28T10:12:49;13.60;;;5.85;;
65368;SDS011;51970;53.484;49.488;2023-07-28T10:15:17;14.45;;;5.95;;
65368;SDS011;51970;53.484;49.488;2023-07-28T10:17:51;13.05;;;5.93;;
65368;SDS011;51970;53.484;49.488;2023-07-28T10:20:26;20.27;;;6.50;;
65368;SDS011;51970;53.484;49.488;2023-07-28T10:22:58;13.45;;;5.72;;
65368;SDS011;51970;53.484;49.488;2023-07-28T10:25:29;14.70;;;6.63;;
65368;SDS011;51970;53.484;49.488;2023-07-28T10:27:59;11.60;;;6.00;;
65368;SDS011;51970;53.484;49.488;2023-07-28T10:30:27;19.75;;;6.40;;
65368;SDS011;51970;53.484;49.488;2023-07-28T10:32:54;16.08;;;7.28;;
65368;SDS011;51970;53.484;49.488;2023-07-28T10:35:23;15.07;;;6.93;;
65368;SDS011;51970;53.484;49.488;2023-07-28T10:37:53;13.95;;;5.63;;
65368;SDS011;51970;53.484;49.488;2023-07-28T10:40:33;10.98;;;5.80;;
65368;SDS011;51970;53.484;49.488;2023-07-28T10:43:00;20.92;;;6.13;;
65368;SDS011;51970;53.484;49.488;2023-07-28T10:45:29;20.23;;;6.35;;
65368;SDS011;51970;53.484;49.488;2023-07-28T10:47:58;15.98;;;6.25;;
65368;SDS011;51970;53.484;49.488;2023-07-28T10:50:26;16.67;;;5.90;;
65368;SDS011;51970;53.484;49.488;2023-07-28T10:52:53;13.75;;;5.25;;
65368;SDS011;51970;53.484;49.488;2023-07-28T10:55:21;19.80;;;8.13;;
65368;SDS011;51970;53.484;49.488;2023-07-28T10:57:50;19.42;;;6.07;;
65368;SDS011;51970;53.484;49.488;2023-07-28T11:00:18;15.27;;;7.13;;
65368;SDS011;51970;53.484;49.488;2023-07-28T11:02:46;16.75;;;6.50;;
65368;SDS011;51970;53.484;49.488;2023-07-28T11:07:57;20.55;;;6.65;;
65368;SDS011;51970;53.484;49.488;2023-07-28T11:10:28;15.63;;;6.47;;
65368;SDS011;51970;53.484;49.488;2023-07-28T11:12:57;16.88;;;6.80;;
65368;SDS011;51970;53.484;49.488;2023-07-28T11:15:24;17.30;;;6.00;;
65368;SDS011;51970;53.484;49.488;2023-07-28T11:17:51;15.35;;;6.75;;
65368;SDS011;51970;53.484;49.488;2023-07-28T11:20:18;19.52;;;6.75;;
65368;SDS011;51970;53.484;49.488;2023-07-28T11:22:54;16.40;;;6.10;;
65368;SDS011;51970;53.484;49.488;2023-07-28T11:25:24;15.00;;;5.88;;
65368;SDS011;51970;53.484;49.488;2023-07-28T11:27:52;18.08;;;7.15;;
65368;SDS011;51970;53.484;49.488;2023-07-28T11:30:19;17.88;;;7.10;;
65368;SDS011;51970;53.484;49.488;2023-07-28T11:32:47;21.88;;;6.97;;
65368;SDS011;51970;53.484;49.488;2023-07-28T11:35:14;14.88;;;6.45;;
65368;SDS011;51970;53.484;49.488;2023-07-28T11:37:43;13.57;;;5.20;;
65368;SDS011;51970;53.484;49.488;2023-07-28T11:40:11;15.15;;;5.95;;
65368;SDS011;51970;53.484;49.488;2023-07-28T11:42:41;19.15;;;7.70;;
65368;SDS011;51970;53.484;49.488;2023-07-28T11:45:10;21.35;;;7.20;;
65368;SDS011;51970;53.484;49.488;2023-07-28T11:47:39;24.40;;;5.68;;
65368;SDS011;51970;53.484;49.488;2023-07-28T11:50:05;20.88;;;6.40;;
65368;SDS011;51970;53.484;49.488;2023-07-28T11:52:33;15.35;;;6.72;;
65368;SDS011;51970;53.484;49.488;2023-07-28T11:55:04;22.23;;;7.03;;
65368;SDS011;51970;53.484;49.488;2023-07-28T11:59:59;16.35;;;6.75;;
65368;SDS011;51970;53.484;49.488;2023-07-28T12:02:26;19.83;;;7.70;;
65368;SDS011;51970;53.484;49.488;2023-07-28T12:04:53;15.77;;;5.05;;
65368;SDS011;51970;53.484;49.488;2023-07-28T12:07:27;17.27;;;7.60;;
65368;SDS011;51970;53.484;49.488;2023-07-28T12:10:04;16.88;;;7.22;;
65368;SDS011;51970;53.484;49.488;2023-07-28T12:12:40;30.33;;;9.02;;
65368;SDS011;51970;53.484;49.488;2023-07-28T12:15:19;16.63;;;7.32;;
65368;SDS011;51970;53.484;49.488;2023-07-28T12:18:07;18.60;;;7.07;;
65368;SDS011;51970;53.484;49.488;2023-07-28T12:23:06;19.88;;;7.65;;
65368;SDS011;51970;53.484;49.488;2023-07-28T12:25:33;20.90;;;8.38;;
65368;SDS011;51970;53.484;49.488;2023-07-28T12:27:59;21.80;;;10.02;;
65368;SDS011;51970;53.484;49.488;2023-07-28T12:30:26;18.58;;;8.82;;
65368;SDS011;51970;53.484;49.488;2023-07-28T12:32:53;15.60;;;6.95;;
65368;SDS011;51970;53.484;49.488;2023-07-28T12:35:19;18.25;;;6.75;;
65368;SDS011;51970;53.484;49.488;2023-07-28T12:37:49;14.65;;;6.43;;
65368;SDS011;51970;53.484;49.488;2023-07-28T12:40:17;18.80;;;6.72;;
65368;SDS011;51970;53.484;49.488;2023-07-28T12:42:47;14.57;;;6.90;;
65368;SDS011;51970;53.484;49.488;2023-07-28T12:45:14;18.27;;;6.57;;
65368;SDS011;51970;53.484;49.488;2023-07-28T12:47:43;19.55;;;7.40;;
65368;SDS011;51970;53.484;49.488;2023-07-28T12:50:10;19.50;;;7.05;;
65368;SDS011;51970;53.484;49.488;2023-07-28T12:52:37;14.50;;;6.63;;
65368;SDS011;51970;53.484;49.488;2023-07-28T12:55:03;14.63;;;6.45;;
65368;SDS011;51970;53.484;49.488;2023-07-28T12:57:31;27.23;;;8.15;;
65368;SDS011;51970;53.484;49.488;2023-07-28T12:59:58;20.10;;;6.63;;
65368;SDS011;51970;53.484;49.488;2023-07-28T13:02:24;22.02;;;6.10;;
65368;SDS011;51970;53.484;49.488;2023-07-28T13:04:51;17.45;;;7.35;;
65368;SDS011;51970;53.484;49.488;2023-07-28T13:07:17;23.52;;;7.63;;
65368;SDS011;51970;53.484;49.488;2023-07-28T13:09:44;15.98;;;6.93;;
65368;SDS011;51970;53.484;49.488;2023-07-28T13:12:11;19.20;;;7.20;;
65368;SDS011;51970;53.484;49.488;2023-07-28T13:14:37;22.83;;;6.80;;
65368;SDS011;51970;53.484;49.488;2023-07-28T13:17:04;21.95;;;8.05;;
65368;SDS011;51970;53.484;49.488;2023-07-28T13:19:30;18.65;;;7.35;;
65368;SDS011;51970;53.484;49.488;2023-07-28T13:21:56;16.92;;;6.38;;
65368;SDS011;51970;53.484;49.488;2023-07-28T13:24:23;16.23;;;6.45;;
65368;SDS011;51970;53.484;49.488;2023-07-28T13:26:49;16.67;;;7.15;;
65368;SDS011;51970;53.484;49.488;2023-07-28T13:29:15;22.10;;;6.65;;
65368;SDS011;51970;53.484;49.488;2023-07-28T13:31:42;22.15;;;7.47;;
65368;SDS011;51970;53.484;49.488;2023-07-28T13:34:08;23.25;;;6.70;;
65368;SDS011;51970;53.484;49.488;2023-07-28T13:36:35;17.55;;;4.65;;
65368;SDS011;51970;53.484;49.488;2023-07-28T13:39:01;14.68;;;6.45;;
65368;SDS011;51970;53.484;49.488;2023-07-28T13:41:28;29.30;;;6.78;;
65368;SDS011;51970;53.484;49.488;2023-07-28T13:43:54;20.13;;;6.65;;
65368;SDS011;51970;53.484;49.488;2023-07-28T13:46:20;21.98;;;6.03;;
65368;SDS011;51970;53.484;49.488;2023-07-28T13:48:47;24.33;;;6.72;;
65368;SDS011;51970;53.484;49.488;2023-07-28T13:51:13;16.90;;;6.53;;
65368;SDS011;51970;53.484;49.488;2023-07-28T13:53:39;21.15;;;7.25;;
65368;SDS011;51970;53.484;49.488;2023-07-28T13:56:05;18.08;;;6.32;;
65368;SDS011;51970;53.484;49.488;2023-07-28T13:58:32;24.25;;;6.45;;
65368;SDS011;51970;53.484;49.488;2023-07-28T14:00:58;22.85;;;5.80;;
65368;SDS011;51970;53.484;49.488;2023-07-28T14:03:24;15.07;;;6.20;;
65368;SDS011;51970;53.484;49.488;2023-07-28T14:05:51;14.35;;;6.25;;
65368;SDS011;51970;53.484;49.488;2023-07-28T14:08:17;18.85;;;5.97;;
65368;SDS011;51970;53.484;49.488;2023-07-28T14:10:44;14.25;;;6.00;;
65368;SDS011;51970;53.484;49.488;2023-07-28T14:13:11;19.17;;;6.32;;
65368;SDS011;51970;53.484;49.488;2023-07-28T14:15:38;18.90;;;6.65;;
65368;SDS011;51970;53.484;49.488;2023-07-28T14:18:05;12.45;;;6.50;;
65368;SDS011;51970;53.484;49.488;2023-07-28T14:20:31;18.33;;;6.78;;
65368;SDS011;51970;53.484;49.488;2023-07-28T14:22:59;16.77;;;6.38;;
65368;SDS011;51970;53.484;49.488;2023-07-28T14:27:54;16.15;;;7.75;;
65368;SDS011;51970;53.484;49.488;2023-07-28T14:30:21;19.20;;;6.43;;
65368;SDS011;51970;53.484;49.488;2023-07-28T14:32:47;14.70;;;6.55;;
65368;SDS011;51970;53.484;49.488;2023-07-28T14:35:13;18.52;;;6.80;;
65368;SDS011;51970;53.484;49.488;2023-07-28T14:37:40;12.30;;;6.63;;
65368;SDS011;51970;53.484;49.488;2023-07-28T14:40:06;16.25;;;7.55;;